Station Historical Data
Daily Summary for August 23, 2017 Units:  Metric    English   Both
« Previous Day
Next Day »
Daily Weekly Monthly Yearly Custom
  High: Low: Average:
Temperature: 23.4 °C 14.9 °C 18.9 °C
Dew Point: 15.2 °C 10.1 °C 12.6 °C
Humidity: 82% 52% 67%
Wind Speed: 25.7km/h 0km/h 6.6km/h
Wind Gust: 35.4km/h - -
Wind- - West
Pressure: 1013.4 hPa 1008.4 hPa -
Precipitation: 0 mm    
Historical Graphs
 
 
Tabular Data for August 23, 2017
Time Temperature Dew Point Pressure Wind Wind Speed Wind Gust Humidity Rainfall Rate (Hourly)
00:04 17.2 °C 13.3 °C 1008.4 hPa Calm   6.4 km/h 78% 0 mm
00:09 17.2 °C 13.3 °C 1008.4 hPa WSW 1.6 km/h 6.4 km/h 78% 0 mm
00:14 17.2 °C 13.5 °C 1008.4 hPa WSW 3.2 km/h 6.4 km/h 79% 0 mm
00:19 17.3 °C 13.6 °C 1008.7 hPa WSW 1.6 km/h 4.8 km/h 79% 0 mm
00:24 17.3 °C 13.6 °C 1008.7 hPa Calm   8 km/h 79% 0 mm
00:29 17.3 °C 13.6 °C 1008.7 hPa Calm   3.2 km/h 79% 0 mm
00:34 17.2 °C 13.5 °C 1009 hPa WSW 1.6 km/h 6.4 km/h 79% 0 mm
00:39 17.1 °C 13.4 °C 1009 hPa WSW 1.6 km/h 8 km/h 79% 0 mm
00:44 17 °C 13.3 °C 1009 hPa WSW 3.2 km/h 8 km/h 79% 0 mm
00:49 16.9 °C 13.2 °C 1009 hPa WSW 1.6 km/h 4.8 km/h 79% 0 mm
00:54 16.8 °C 13.3 °C 1009 hPa West 3.2 km/h 6.4 km/h 80% 0 mm
00:59 16.7 °C 13.2 °C 1009 hPa West 4.8 km/h 4.8 km/h 80% 0 mm
01:04 16.6 °C 13.2 °C 1009 hPa WSW 1.6 km/h 6.4 km/h 80% 0 mm
01:09 16.6 °C 13.1 °C 1009 hPa Calm   4.8 km/h 80% 0 mm
01:14 16.5 °C 13.1 °C 1009 hPa West 1.6 km/h 6.4 km/h 80% 0 mm
01:19 16.5 °C 13.1 °C 1009 hPa Calm   6.4 km/h 80% 0 mm
01:24 16.5 °C 13.1 °C 1009 hPa Calm   1.6 km/h 80% 0 mm
01:29 16.3 °C 12.9 °C 1009 hPa Calm     80% 0 mm
01:34 16.2 °C 12.9 °C 1009 hPa Calm     81% 0 mm
01:39 16.1 °C 12.8 °C 1009 hPa Calm   4.8 km/h 81% 0 mm
01:44 16.1 °C 12.8 °C 1009 hPa Calm   4.8 km/h 81% 0 mm
01:49 15.9 °C 12.9 °C 1009 hPa Calm   4.8 km/h 82% 0 mm
01:54 15.9 °C 12.9 °C 1009 hPa Calm   8 km/h 82% 0 mm
01:59 15.9 °C 12.8 °C 1009 hPa Calm     82% 0 mm
02:04 15.8 °C 12.7 °C 1009 hPa Calm     82% 0 mm
02:09 15.7 °C 12.7 °C 1009.4 hPa Calm     82% 0 mm
02:14 15.7 °C 12.7 °C 1009.4 hPa Calm   8 km/h 82% 0 mm
02:19 15.8 °C 12.7 °C 1009 hPa Calm     82% 0 mm
02:24 15.8 °C 12.7 °C 1009.4 hPa Calm   3.2 km/h 82% 0 mm
02:29 15.8 °C 12.7 °C 1009.4 hPa West 1.6 km/h 6.4 km/h 82% 0 mm
02:34 15.8 °C 12.7 °C 1009.4 hPa West 1.6 km/h 6.4 km/h 82% 0 mm
02:39 15.8 °C 12.8 °C 1009.4 hPa West 1.6 km/h 6.4 km/h 82% 0 mm
02:44 15.9 °C 12.6 °C 1009.4 hPa Calm   6.4 km/h 81% 0 mm
02:49 15.9 °C 12.7 °C 1009.4 hPa Calm   6.4 km/h 81% 0 mm
02:54 16.1 °C 12.8 °C 1009.4 hPa Calm   6.4 km/h 81% 0 mm
02:59 16 °C 12.6 °C 1009.4 hPa Calm     80% 0 mm
03:04 15.9 °C 12.7 °C 1009.4 hPa Calm   6.4 km/h 81% 0 mm
03:09 15.9 °C 12.7 °C 1009.4 hPa Calm   6.4 km/h 81% 0 mm
03:14 15.9 °C 12.6 °C 1009.4 hPa Calm   4.8 km/h 81% 0 mm
03:19 15.8 °C 12.6 °C 1009.4 hPa Calm   4.8 km/h 81% 0 mm
03:24 15.8 °C 12.5 °C 1009 hPa Calm     81% 0 mm
03:29 15.8 °C 12.5 °C 1009.4 hPa Calm   4.8 km/h 81% 0 mm
03:34 15.8 °C 12.5 °C 1009.4 hPa Calm   4.8 km/h 81% 0 mm
03:39 15.7 °C 12.4 °C 1009.4 hPa Calm   1.6 km/h 81% 0 mm
03:44 15.6 °C 12.5 °C 1009.4 hPa Calm     82% 0 mm
03:49 15.4 °C 12.4 °C 1009.4 hPa Calm   3.2 km/h 82% 0 mm
03:54 15.4 °C 12.3 °C 1009.4 hPa West 6.4 km/h 6.4 km/h 82% 0 mm
03:59 15.4 °C 12.3 °C 1009.4 hPa West 4.8 km/h 6.4 km/h 82% 0 mm
04:04 15.4 °C 12.4 °C 1009.4 hPa West 1.6 km/h 8 km/h 82% 0 mm
04:09 15.5 °C 12.4 °C 1009.4 hPa WNW 3.2 km/h 11.3 km/h 82% 0 mm
04:14 15.6 °C 12.5 °C 1009.4 hPa WNW 3.2 km/h 11.3 km/h 82% 0 mm
04:19 15.7 °C 12.4 °C 1009.4 hPa WNW 3.2 km/h 12.9 km/h 81% 0 mm
04:24 15.8 °C 12.6 °C 1009.4 hPa WNW 6.4 km/h 12.9 km/h 81% 0 mm
04:29 15.9 °C 12.6 °C 1009.4 hPa West 4.8 km/h 12.9 km/h 81% 0 mm
04:34 15.9 °C 12.5 °C 1009.4 hPa WNW 1.6 km/h 8 km/h 80% 0 mm
04:39 15.9 °C 12.5 °C 1009.4 hPa WNW 3.2 km/h 8 km/h 80% 0 mm
04:44 15.9 °C 12.4 °C 1009.4 hPa WNW 4.8 km/h 4.8 km/h 80% 0 mm
04:49 15.9 °C 12.6 °C 1009.4 hPa West 3.2 km/h 8 km/h 81% 0 mm
04:54 15.9 °C 12.6 °C 1009.4 hPa WNW 6.4 km/h 11.3 km/h 81% 0 mm
04:59 15.9 °C 12.6 °C 1009.4 hPa West 6.4 km/h 11.3 km/h 81% 0 mm
05:04 15.9 °C 12.6 °C 1009.7 hPa WNW 4.8 km/h 11.3 km/h 81% 0 mm
05:09 15.9 °C 12.6 °C 1009.7 hPa WNW 4.8 km/h 11.3 km/h 81% 0 mm
05:14 15.9 °C 12.6 °C 1009.7 hPa West 6.4 km/h 12.9 km/h 81% 0 mm
05:19 15.9 °C 12.6 °C 1009.7 hPa West 6.4 km/h 12.9 km/h 81% 0 mm
05:24 15.9 °C 12.7 °C 1009.7 hPa West 4.8 km/h 11.3 km/h 81% 0 mm
05:29 15.8 °C 12.6 °C 1009.7 hPa West 4.8 km/h 9.7 km/h 81% 0 mm
05:34 15.8 °C 12.5 °C 1009.7 hPa West 3.2 km/h 8 km/h 81% 0 mm
05:39 15.7 °C 12.4 °C 1009.7 hPa West 4.8 km/h 11.3 km/h 81% 0 mm
05:44 15.7 °C 12.4 °C 1010 hPa West 4.8 km/h 11.3 km/h 81% 0 mm
05:49 15.7 °C 12.4 °C 1010 hPa West 9.7 km/h 9.7 km/h 81% 0 mm
05:54 15.6 °C 12.3 °C 1010 hPa WNW 6.4 km/h 9.7 km/h 81% 0 mm
05:59 15.6 °C 12.3 °C 1010 hPa NW 4.8 km/h 11.3 km/h 81% 0 mm
06:04 15.6 °C 12.2 °C 1010 hPa WNW 3.2 km/h 12.9 km/h 80% 0 mm
06:09 15.6 °C 12.1 °C 1010 hPa WNW 6.4 km/h 12.9 km/h 80% 0 mm
06:14 15.6 °C 12.1 °C 1010 hPa WNW 4.8 km/h 11.3 km/h 80% 0 mm
06:19 15.5 °C 12.1 °C 1010.4 hPa WNW 4.8 km/h 11.3 km/h 80% 0 mm
06:24 15.6 °C 12.1 °C 1010.4 hPa WNW 4.8 km/h 11.3 km/h 80% 0 mm
06:29 15.5 °C 12.1 °C 1010.4 hPa West 4.8 km/h 11.3 km/h 80% 0 mm
06:34 15.5 °C 12.1 °C 1010.4 hPa WNW 3.2 km/h 8 km/h 80% 0 mm
06:39 15.5 °C 12.1 °C 1010.4 hPa WNW 4.8 km/h 11.3 km/h 80% 0 mm
06:44 15.4 °C 11.8 °C 1010.4 hPa WNW 4.8 km/h 11.3 km/h 79% 0 mm
06:49 15.4 °C 12 °C 1010.4 hPa WNW 4.8 km/h 9.7 km/h 80% 0 mm
06:54 15.4 °C 11.9 °C 1010.4 hPa WNW 4.8 km/h 9.7 km/h 80% 0 mm
06:59 15.4 °C 11.9 °C 1010.4 hPa West 1.6 km/h 8 km/h 80% 0 mm
07:04 15.4 °C 11.9 °C 1010.7 hPa WNW 4.8 km/h 6.4 km/h 80% 0 mm
07:09 15.4 °C 12 °C 1010.7 hPa WNW 8 km/h 12.9 km/h 80% 0 mm
07:14 15.6 °C 12.1 °C 1010.7 hPa WNW 4.8 km/h 12.9 km/h 80% 0 mm
07:19 15.7 °C 12.1 °C 1010.7 hPa West 4.8 km/h 12.9 km/h 79% 0 mm
07:24 15.8 °C 12.2 °C 1010.7 hPa West 4.8 km/h 11.3 km/h 79% 0 mm
07:29 15.9 °C 12.2 °C 1010.7 hPa WNW 3.2 km/h 11.3 km/h 79% 0 mm
07:34 16.1 °C 12.2 °C 1010.7 hPa NW 4.8 km/h 9.7 km/h 78% 0 mm
07:39 16.2 °C 12.3 °C 1010.7 hPa WNW 6.4 km/h 16.1 km/h 78% 0 mm
07:44 16.3 °C 12.4 °C 1010.7 hPa WNW 8 km/h 16.1 km/h 78% 0 mm
07:49 16.4 °C 12.6 °C 1010.7 hPa West 6.4 km/h 14.5 km/h 78% 0 mm
07:54 16.5 °C 12.4 °C 1010.7 hPa WNW 6.4 km/h 12.9 km/h 77% 0 mm
07:59 16.7 °C 12.4 °C 1010.7 hPa West 6.4 km/h 14.5 km/h 76% 0 mm
08:04 16.8 °C 12.6 °C 1010.7 hPa West 6.4 km/h 11.3 km/h 76% 0 mm
08:09 17 °C 12.7 °C 1011.1 hPa West 6.4 km/h 9.7 km/h 76% 0 mm
08:14 17.2 °C 12.6 °C 1011.1 hPa WNW 3.2 km/h 12.9 km/h 74% 0 mm
08:19 17.4 °C 12.8 °C 1011.1 hPa WNW 6.4 km/h 14.5 km/h 74% 0 mm
08:24 17.7 °C 12.8 °C 1011.1 hPa West 4.8 km/h 14.5 km/h 73% 0 mm
08:29 17.9 °C 12.8 °C 1011.1 hPa WNW 8 km/h 12.9 km/h 72% 0 mm
08:34 17.9 °C 12.6 °C 1011.1 hPa WNW 6.4 km/h 14.5 km/h 71% 0 mm
08:39 18.2 °C 13.1 °C 1011.1 hPa NW 6.4 km/h 11.3 km/h 72% 0 mm
08:44 18.5 °C 12.9 °C 1011.1 hPa NW 11.3 km/h 11.3 km/h 70% 0 mm
08:49 18.6 °C 13 °C 1011.1 hPa WNW 6.4 km/h 12.9 km/h 70% 0 mm
08:54 18.8 °C 12.9 °C 1011.1 hPa WNW 6.4 km/h 12.9 km/h 69% 0 mm
08:59 18.8 °C 12.8 °C 1011.1 hPa WNW 6.4 km/h 12.9 km/h 68% 0 mm
09:04 18.9 °C 12.6 °C 1011.1 hPa WNW 8 km/h 12.9 km/h 67% 0 mm
09:09 19.2 °C 12.7 °C 1011.1 hPa WNW 8 km/h 12.9 km/h 66% 0 mm
09:14 19.2 °C 12.7 °C 1011.4 hPa WNW 11.3 km/h 17.7 km/h 66% 0 mm
09:19 19.3 °C 12.6 °C 1011.4 hPa NW 8 km/h 14.5 km/h 65% 0 mm
09:24 19.3 °C 12.3 °C 1011.1 hPa WNW 8 km/h 16.1 km/h 64% 0 mm
09:29 19.4 °C 12.4 °C 1011.1 hPa WNW 4.8 km/h 12.9 km/h 64% 0 mm
09:34 19.8 °C 12.6 °C 1011.1 hPa WNW 3.2 km/h 9.7 km/h 63% 0 mm
09:39 19.9 °C 12.4 °C 1011.1 hPa West 11.3 km/h 16.1 km/h 62% 0 mm
09:44 20.1 °C 12.6 °C 1011.1 hPa WNW 4.8 km/h 12.9 km/h 62% 0 mm
09:49 20.3 °C 12.3 °C 1011.1 hPa WSW 4.8 km/h 14.5 km/h 60% 0 mm
09:54 20.3 °C 12.1 °C 1011.1 hPa West 8 km/h 14.5 km/h 59% 0 mm
09:59 20.6 °C 12 °C 1011.1 hPa West 8 km/h 19.3 km/h 58% 0 mm
10:04 20.4 °C 12.2 °C 1011.1 hPa West 8 km/h 19.3 km/h 59% 0 mm
10:09 20.6 °C 12.3 °C 1011.1 hPa West 8 km/h 17.7 km/h 59% 0 mm
10:14 20.7 °C 12.2 °C 1011.4 hPa West 8 km/h 17.7 km/h 58% 0 mm
10:19 20.8 °C 11.7 °C 1011.4 hPa West 8 km/h 17.7 km/h 56% 0 mm
10:24 20.8 °C 12 °C 1011.4 hPa West 9.7 km/h 16.1 km/h 57% 0 mm
10:29 20.8 °C 11.4 °C 1011.4 hPa SW 8 km/h 19.3 km/h 55% 0 mm
10:34 21.2 °C 12.1 °C 1011.4 hPa WNW 20.9 km/h 22.5 km/h 56% 0 mm
10:39 21.2 °C 12.3 °C 1011.4 hPa West 12.9 km/h 19.3 km/h 57% 0 mm
10:44 21.2 °C 12.1 °C 1011.4 hPa SSW 9.7 km/h 24.1 km/h 56% 0 mm
10:49 21.3 °C 11.9 °C 1011.1 hPa West 8 km/h 14.5 km/h 55% 0 mm
10:54 21.4 °C 12.8 °C 1011.1 hPa West 8 km/h 17.7 km/h 58% 0 mm
10:59 21.5 °C 12.9 °C 1011.1 hPa West 8 km/h 19.3 km/h 58% 0 mm
11:04 21.6 °C 12.7 °C 1011.1 hPa WSW 8 km/h 19.3 km/h 57% 0 mm
11:09 21.6 °C 13.2 °C 1011.1 hPa West 12.9 km/h 17.7 km/h 59% 0 mm
11:14 21.7 °C 13.1 °C 1011.1 hPa WSW 19.3 km/h 24.1 km/h 58% 0 mm
11:19 21.7 °C 13.3 °C 1011.1 hPa West 9.7 km/h 20.9 km/h 59% 0 mm
11:24 21.9 °C 13.8 °C 1011.1 hPa WSW 11.3 km/h 22.5 km/h 60% 0 mm
11:29 22.1 °C 13.4 °C 1011.1 hPa WSW 11.3 km/h 24.1 km/h 58% 0 mm
11:34 22.4 °C 13.4 °C 1011.1 hPa WSW 9.7 km/h 25.7 km/h 57% 0 mm
11:39 22.4 °C 13.2 °C 1011.1 hPa WSW 8 km/h 19.3 km/h 56% 0 mm
11:44 22.2 °C 13 °C 1011.1 hPa SSW 12.9 km/h 29 km/h 56% 0 mm
11:49 21.8 °C 13.4 °C 1011.1 hPa WSW 11.3 km/h 27.4 km/h 59% 0 mm
11:54 22.1 °C 13.2 °C 1011.1 hPa WSW 12.9 km/h 27.4 km/h 57% 0 mm
11:59 22.5 °C 13.6 °C 1011.1 hPa WSW 4.8 km/h 19.3 km/h 57% 0 mm
12:04 22.4 °C 12.7 °C 1011.4 hPa SW 16.1 km/h 25.7 km/h 54% 0 mm
12:09 22.3 °C 12.6 °C 1011.4 hPa SSW 9.7 km/h 27.4 km/h 54% 0 mm
12:14 22.4 °C 12.9 °C 1011.1 hPa West 6.4 km/h 22.5 km/h 55% 0 mm
12:19 22.6 °C 13.3 °C 1011.1 hPa SW 9.7 km/h 24.1 km/h 56% 0 mm
12:24 22.6 °C 13.3 °C 1011.4 hPa WSW 12.9 km/h 25.7 km/h 56% 0 mm
12:29 22.8 °C 14.1 °C 1011.1 hPa WSW 11.3 km/h 25.7 km/h 58% 0 mm
12:34 22.9 °C 13.4 °C 1011.1 hPa WSW 11.3 km/h 25.7 km/h 55% 0 mm
12:39 22.9 °C 12.5 °C 1011.1 hPa WSW 11.3 km/h 29 km/h 52% 0 mm
12:44 22.7 °C 13.4 °C 1011.1 hPa WSW 11.3 km/h 29 km/h 56% 0 mm
12:49 23.1 °C 13.5 °C 1011.1 hPa SW 14.5 km/h 22.5 km/h 55% 0 mm
12:54 22.3 °C 12.6 °C 1011.1 hPa WSW 14.5 km/h 24.1 km/h 54% 0 mm
12:59 22.6 °C 13.7 °C 1011.1 hPa WSW 12.9 km/h 24.1 km/h 57% 0 mm
13:04 22.3 °C 12.6 °C 1011.1 hPa SW 8 km/h 29 km/h 54% 0 mm
13:09 21.8 °C 12.7 °C 1011.1 hPa SW 9.7 km/h 22.5 km/h 56% 0 mm
13:14 22.1 °C 12.9 °C 1011.1 hPa SSW 8 km/h 24.1 km/h 56% 0 mm
13:19 22.4 °C 13.2 °C 1011.1 hPa SSW 12.9 km/h 24.1 km/h 56% 0 mm
13:24 22.8 °C 13.3 °C 1011.1 hPa WSW 12.9 km/h 25.7 km/h 55% 0 mm
13:29 22.8 °C 13.3 °C 1011.1 hPa SW 12.9 km/h 29 km/h 55% 0 mm
13:34 22.7 °C 13.2 °C 1010.7 hPa WSW 12.9 km/h 29 km/h 55% 0 mm
13:39 22.8 °C 13.3 °C 1011.1 hPa WSW 14.5 km/h 24.1 km/h 55% 0 mm
13:44 22.9 °C 13.4 °C 1010.7 hPa SW 12.9 km/h 24.1 km/h 55% 0 mm
13:49 23.3 °C 13.7 °C 1010.7 hPa WSW 11.3 km/h 24.1 km/h 55% 0 mm
13:54 23.3 °C 13.7 °C 1010.7 hPa SW 6.4 km/h 24.1 km/h 55% 0 mm
13:59 23.3 °C 13.5 °C 1011.1 hPa SW 8 km/h 27.4 km/h 54% 0 mm
14:04 22.8 °C 13.3 °C 1011.1 hPa West 12.9 km/h 29 km/h 55% 0 mm
14:09 22.9 °C 13.4 °C 1011.1 hPa WSW 11.3 km/h 27.4 km/h 55% 0 mm
14:14 22.9 °C 13.9 °C 1010.7 hPa SSW 17.7 km/h 30.6 km/h 57% 0 mm
14:19 22.9 °C 13.9 °C 1011.1 hPa SSW 11.3 km/h 25.7 km/h 57% 0 mm
14:24 22.9 °C 13.7 °C 1010.7 hPa West 16.1 km/h 35.4 km/h 56% 0 mm
14:29 22.9 °C 13.1 °C 1010.7 hPa SW 14.5 km/h 35.4 km/h 54% 0 mm
14:34 22.8 °C 13.3 °C 1010.7 hPa WSW 16.1 km/h 33.8 km/h 55% 0 mm
14:39 23.2 °C 13.1 °C 1011.1 hPa WSW 14.5 km/h 27.4 km/h 53% 0 mm
14:49 23.4 °C 14.1 °C 1010.7 hPa WSW 12.9 km/h 24.1 km/h 56% 0 mm
14:54 23.1 °C 13.8 °C 1010.7 hPa WSW 12.9 km/h 30.6 km/h 56% 0 mm
14:59 23.1 °C 13.5 °C 1010.7 hPa SW 16.1 km/h 27.4 km/h 55% 0 mm
15:04 23.2 °C 13.9 °C 1010.7 hPa WSW 12.9 km/h 27.4 km/h 56% 0 mm
15:09 23.2 °C 14.2 °C 1010.7 hPa WSW 12.9 km/h 27.4 km/h 57% 0 mm
15:19 23.3 °C 14.1 °C 1010.7 hPa WSW 14.5 km/h 22.5 km/h 56% 0 mm
15:24 23.3 °C 14.6 °C 1010.7 hPa NW 9.7 km/h 24.1 km/h 58% 0 mm
15:29 23.2 °C 13.9 °C 1010.7 hPa SW 14.5 km/h 29 km/h 56% 0 mm
15:34 23.2 °C 13.9 °C 1010.7 hPa West 11.3 km/h 32.2 km/h 56% 0 mm
15:39 23.2 °C 14.7 °C 1010.7 hPa SW 14.5 km/h 33.8 km/h 59% 0 mm
15:44 23.3 °C 14.3 °C 1011.1 hPa SW 14.5 km/h 33.8 km/h 57% 0 mm
15:49 23 °C 14.3 °C 1010.7 hPa WSW 14.5 km/h 32.2 km/h 58% 0 mm
15:54 23.1 °C 14.1 °C 1010.7 hPa WSW 22.5 km/h 30.6 km/h 57% 0 mm
15:59 22.9 °C 14.2 °C 1010.4 hPa South 14.5 km/h 32.2 km/h 58% 0 mm
16:04 22.7 °C 14 °C 1010.4 hPa WSW 9.7 km/h 35.4 km/h 58% 0 mm
16:09 22.6 °C 14.2 °C 1010.7 hPa WSW 14.5 km/h 35.4 km/h 59% 0 mm
16:14 22.2 °C 14.3 °C 1010.4 hPa SW 12.9 km/h 25.7 km/h 61% 0 mm
16:19 21.7 °C 14.1 °C 1010.7 hPa SSW 25.7 km/h 25.7 km/h 62% 0 mm
16:24 21.4 °C 14.1 °C 1010.7 hPa West 16.1 km/h 29 km/h 63% 0 mm
16:29 21.3 °C 14.2 °C 1011.1 hPa West 16.1 km/h 32.2 km/h 64% 0 mm
16:34 21.2 °C 14.1 °C 1010.7 hPa West 6.4 km/h 22.5 km/h 64% 0 mm
16:39 21.2 °C 14.1 °C 1011.1 hPa WSW 12.9 km/h 24.1 km/h 64% 0 mm
16:44 21.2 °C 14.3 °C 1011.1 hPa WSW 12.9 km/h 27.4 km/h 65% 0 mm
16:49 20.8 °C 14.7 °C 1011.1 hPa WSW 12.9 km/h 22.5 km/h 68% 0.25 mm
16:54 20.4 °C 14.8 °C 1010.7 hPa SW 6.4 km/h 25.7 km/h 70% 0.25 mm
16:59 20.7 °C 15.1 °C 1011.1 hPa WSW 16.1 km/h 30.6 km/h 70% 0.25 mm
17:04 20.7 °C 14.3 °C 1011.1 hPa West 12.9 km/h 32.2 km/h 67% 0.25 mm
17:09 20.8 °C 15.2 °C 1011.1 hPa WSW 14.5 km/h 32.2 km/h 70% 0.25 mm
17:14 20.9 °C 15.1 °C 1011.1 hPa WSW 11.3 km/h 27.4 km/h 69% 0.25 mm
17:19 21.1 °C 14.9 °C 1010.7 hPa WSW 9.7 km/h 19.3 km/h 68% 0.25 mm
17:24 21.4 °C 14.8 °C 1010.7 hPa WSW 9.7 km/h 20.9 km/h 66% 0.25 mm
17:29 21.7 °C 14.4 °C 1010.7 hPa WSW 9.7 km/h 16.1 km/h 63% 0.25 mm
17:34 21.7 °C 14.1 °C 1011.1 hPa SSW 8 km/h 16.1 km/h 62% 0.25 mm
17:39 21.5 °C 14.2 °C 1011.1 hPa WSW 8 km/h 19.3 km/h 63% 0.25 mm
17:44 21.4 °C 12.8 °C 1011.1 hPa West 8 km/h 19.3 km/h 58% 0.25 mm
17:49 21.6 °C 13 °C 1011.1 hPa West 4.8 km/h 19.3 km/h 58% 0 mm
17:54 21.8 °C 12.3 °C 1011.1 hPa WSW 8 km/h 24.1 km/h 55% 0 mm
17:59 21.7 °C 12 °C 1011.1 hPa West 11.3 km/h 24.1 km/h 54% 0 mm
18:04 21.7 °C 12 °C 1011.1 hPa WNW 8 km/h 22.5 km/h 54% 0 mm
18:09 22 °C 12.3 °C 1011.1 hPa West 12.9 km/h 22.5 km/h 54% 0 mm
18:14 22.1 °C 12.6 °C 1011.1 hPa WNW 9.7 km/h 22.5 km/h 55% 0 mm
18:19 21.9 °C 12.4 °C 1011.1 hPa WNW 9.7 km/h 19.3 km/h 55% 0 mm
18:24 21.8 °C 12.6 °C 1011.4 hPa WNW 9.7 km/h 19.3 km/h 56% 0 mm
18:29 21.8 °C 12.7 °C 1011.4 hPa WNW 9.7 km/h 16.1 km/h 56% 0 mm
18:34 21.7 °C 12.5 °C 1011.4 hPa WNW 9.7 km/h 19.3 km/h 56% 0 mm
18:39 21.6 °C 12.4 °C 1011.1 hPa West 9.7 km/h 25.7 km/h 56% 0 mm
18:44 21.8 °C 12.6 °C 1011.1 hPa WNW 9.7 km/h 25.7 km/h 56% 0 mm
18:49 21.8 °C 12.9 °C 1011.4 hPa West 9.7 km/h 17.7 km/h 57% 0 mm
18:54 21.6 °C 12.7 °C 1011.4 hPa WSW 8 km/h 24.1 km/h 57% 0 mm
18:59 21.4 °C 12.8 °C 1011.4 hPa NW 8 km/h 19.3 km/h 58% 0 mm
19:04 21.2 °C 12.6 °C 1011.4 hPa WNW 9.7 km/h 20.9 km/h 58% 0 mm
19:09 21 °C 12.4 °C 1011.4 hPa WNW 6.4 km/h 17.7 km/h 58% 0 mm
19:14 20.9 °C 12.6 °C 1011.4 hPa West 9.7 km/h 17.7 km/h 59% 0 mm
19:19 20.8 °C 12.7 °C 1011.4 hPa West 8 km/h 16.1 km/h 60% 0 mm
19:24 20.7 °C 12.4 °C 1011.4 hPa WNW 6.4 km/h 14.5 km/h 59% 0 mm
19:29 20.7 °C 12.4 °C 1011.7 hPa WNW 6.4 km/h 14.5 km/h 59% 0 mm
19:34 20.7 °C 12.4 °C 1011.7 hPa WNW 6.4 km/h 16.1 km/h 59% 0 mm
19:39 20.5 °C 11.7 °C 1011.7 hPa West 3.2 km/h 24.1 km/h 57% 0 mm
19:44 20.4 °C 11.3 °C 1011.7 hPa WSW 14.5 km/h 16.1 km/h 56% 0 mm
19:49 20.3 °C 10.9 °C 1011.7 hPa NW 4.8 km/h 17.7 km/h 55% 0 mm
19:54 20.1 °C 10.8 °C 1011.7 hPa NW 8 km/h 17.7 km/h 55% 0 mm
19:59 20 °C 10.9 °C 1011.7 hPa NNE 3.2 km/h 16.1 km/h 56% 0 mm
20:04 19.8 °C 11 °C 1012.1 hPa NW 3.2 km/h 11.3 km/h 57% 0 mm
20:09 19.7 °C 11.2 °C 1012.1 hPa WNW 1.6 km/h 12.9 km/h 58% 0 mm
20:14 19.5 °C 11.3 °C 1012.1 hPa NW 4.8 km/h 12.9 km/h 59% 0 mm
20:19 19.3 °C 11.3 °C 1012.1 hPa NNW 3.2 km/h 12.9 km/h 60% 0 mm
20:24 19.1 °C 11.2 °C 1012.1 hPa NW 4.8 km/h 12.9 km/h 60% 0 mm
20:29 19.1 °C 11.1 °C 1012.1 hPa NW 6.4 km/h 14.5 km/h 60% 0 mm
20:34 19 °C 11.3 °C 1012.1 hPa NW 4.8 km/h 14.5 km/h 61% 0 mm
20:39 18.8 °C 11.1 °C 1012.1 hPa Calm   9.7 km/h 61% 0 mm
20:44 18.7 °C 11.1 °C 1012.1 hPa NNW 6.4 km/h 12.9 km/h 61% 0 mm
20:49 18.7 °C 11 °C 1012.4 hPa NW 4.8 km/h 12.9 km/h 61% 0 mm
20:54 18.6 °C 11.1 °C 1012.4 hPa NW 4.8 km/h 12.9 km/h 62% 0 mm
20:59 18.4 °C 11 °C 1012.4 hPa NW 6.4 km/h 9.7 km/h 62% 0 mm
21:04 18.3 °C 11.1 °C 1012.4 hPa WNW 6.4 km/h 9.7 km/h 63% 0 mm
21:09 18.3 °C 10.9 °C 1012.4 hPa Calm   8 km/h 62% 0 mm
21:14 18.2 °C 11 °C 1012.8 hPa West 3.2 km/h 9.7 km/h 63% 0 mm
21:19 18 °C 10.8 °C 1012.8 hPa WNW 3.2 km/h 9.7 km/h 63% 0 mm
21:24 17.9 °C 10.7 °C 1012.8 hPa WNW 1.6 km/h 8 km/h 63% 0 mm
21:29 17.7 °C 10.6 °C 1012.8 hPa NW 1.6 km/h 9.7 km/h 63% 0 mm
21:34 17.7 °C 10.6 °C 1012.8 hPa NW 1.6 km/h 8 km/h 63% 0 mm
21:39 17.7 °C 10.6 °C 1012.8 hPa WNW 3.2 km/h 11.3 km/h 63% 0 mm
21:44 17.7 °C 10.6 °C 1012.8 hPa North 8 km/h 8 km/h 63% 0 mm
21:49 17.6 °C 10.7 °C 1012.8 hPa NNW 1.6 km/h 11.3 km/h 64% 0 mm
21:54 17.4 °C 10.6 °C 1012.8 hPa NW 3.2 km/h 11.3 km/h 64% 0 mm
21:59 17.4 °C 10.5 °C 1012.8 hPa Calm   9.7 km/h 64% 0 mm
22:04 17.3 °C 10.6 °C 1013.1 hPa Calm   6.4 km/h 65% 0 mm
22:09 17.2 °C 10.6 °C 1013.1 hPa West 6.4 km/h 6.4 km/h 65% 0 mm
22:14 17.1 °C 10.5 °C 1013.1 hPa NW 1.6 km/h 8 km/h 65% 0 mm
22:19 17 °C 10.6 °C 1013.1 hPa NNW 1.6 km/h 8 km/h 66% 0 mm
22:24 16.9 °C 10.6 °C 1013.1 hPa NNW 1.6 km/h 6.4 km/h 66% 0 mm
22:29 16.8 °C 10.4 °C 1013.1 hPa NW 1.6 km/h 8 km/h 66% 0 mm
22:34 16.7 °C 10.3 °C 1013.1 hPa NW 1.6 km/h 8 km/h 66% 0 mm
22:39 16.6 °C 10.4 °C 1013.1 hPa Calm   6.4 km/h 67% 0 mm
22:44 16.6 °C 10.4 °C 1013.1 hPa NW 1.6 km/h 6.4 km/h 67% 0 mm
22:49 16.5 °C 10.3 °C 1013.1 hPa NW 3.2 km/h 6.4 km/h 67% 0 mm
22:54 16.3 °C 10.2 °C 1013.1 hPa Calm   4.8 km/h 67% 0 mm
22:59 16.3 °C 10.3 °C 1013.1 hPa WNW 1.6 km/h 6.4 km/h 68% 0 mm
23:04 16.2 °C 10.3 °C 1013.1 hPa NW 1.6 km/h 4.8 km/h 68% 0 mm
23:09 16.1 °C 10.2 °C 1013.4 hPa Calm   4.8 km/h 68% 0 mm
23:14 15.9 °C 10.3 °C 1013.4 hPa Calm   4.8 km/h 69% 0 mm
23:19 15.8 °C 10.1 °C 1013.4 hPa Calm     69% 0 mm
23:24 15.7 °C 10.3 °C 1013.4 hPa Calm   3.2 km/h 70% 0 mm
23:29 15.7 °C 10.2 °C 1013.4 hPa Calm   3.2 km/h 70% 0 mm
23:34 15.6 °C 10.3 °C 1013.4 hPa Calm   3.2 km/h 71% 0 mm
23:39 15.4 °C 10.2 °C 1013.4 hPa Calm     71% 0 mm
23:44 15.3 °C 10.3 °C 1013.4 hPa Calm   4.8 km/h 72% 0 mm
23:49 15.3 °C 10.3 °C 1013.4 hPa Calm   1.6 km/h 72% 0 mm
23:54 15.2 °C 10.2 °C 1013.4 hPa Calm     72% 0 mm
23:59 14.9 °C 10.2 °C 1013.4 hPa Calm     73% 0 mm
Buffalo, New York, USA
Compliments of Weather Underground - 2.5 mb